Antoine Wiels

Antoine Wiels

Statistiques 2026

  • Courses courues : 92
  • Nb de victoires : 24
  • Nb de places : 52
  • Écart gagnant : 2
  • Réussite à la gagne : 26%
  • Réussite à la place : 57%
Musique : 2a 0a 1a 3a 0a 3a 0a 0a 3a 5a Da Da 7a Da 3a 7a Da 1a
DateRangCatégorieAlloc.Dist.HippodromeChevalRed. KmSpé.
16/02/20 A Trot 15 000€ 2 800m Pontchateau Eckmuhl Jack Monté
23/02/20 D Trot 13 000€ 2 700m Graignes Graine de Pouline Monté
24/02/20 1 Trot 17 000€ 2 800m Pontchateau Galicio Bello 1'17"6 Monté lire

Principal animateur, s'est montré le plus fort pour finir.

24/02/20 0 Trot 17 000€ 2 800m Pontchateau Europa Blue Monté lire

N'a joué aucun rôle utile.

27/02/20 5 Trot 44 000€ 2 700m Vincennes Fauve de Felliere 1'14"4 Monté lire

Rapidement à la pointe du combat, a progressivement faibli pour finir.

28/02/20 8 Trot 31 000€ 2 875m Laval Ciceron du Cebe 1'16"5 Monté
28/02/20 1 Trot 16 000€ 2 875m Laval Gerfaut d'hameline 1'17"0 Monté
01/03/20 2 Trot 15 000€ 2 925m Challans Fidelio d'hameline 1'16"5 Monté
05/03/20 2 Trot 23 000€ 2 875m Laval Eroico Bello 1'15"0 Monté
05/03/20 6 Trot 20 000€ 2 875m Laval Feeling Way 1'17"6 Monté
06/03/20 D Trot 19 000€ 2 825m Cordemais Fanfan du Lupin Monté
06/03/20 6 Trot 30 000€ 2 825m Cordemais Amour du Chatault 1'15"2 Monté
07/03/20 7 Trot 16 000€ 2 450m Caen Histoire de Prez 1'18"8 Monté
07/03/20 D Trot 16 000€ 2 450m Caen Graziela Coglaise Monté
07/03/20 6 Trot 27 000€ 2 450m Caen Cadence Del Fretta 1'13"6 Monté
16/03/20 D Trot 16 000€ 2 450m Caen Graziela Coglaise Monté
16/03/20 5 Trot 20 000€ 2 450m Caen Fetard 1'15"2 Monté
13/05/20 5 Trot 35 000€ 2 450m Caen Chacha de Gontier 1'13"3 Monté
15/05/20 0 Trot 21 000€ 2 875m Meslay Du Maine Exquise Dancer Monté
16/05/20 9 Trot 16 000€ 2 450m Caen Harlem Poterie 1'19"5 Monté
16/05/20 2 Trot 23 000€ 2 450m Caen Eroico Bello 1'13"1 Monté
18/05/20 1 Trot 22 000€ 3 000m Nantes Elsa Rush 1'14"0 Monté
22/05/20 3 Trot 16 000€ 2 875m Laval Gerfaut d'hameline 1'16"6 Monté
23/05/20 D Trot 12 000€ 2 775m Les Sables D'Olonne Galinka du Lupin Monté
25/05/20 6 Trot 14 000€ 2 850m Maure De Bretagne Easy de Trouville 1'16"0 Monté
28/05/20 3 Trot 30 000€ 2 875m Meslay Du Maine Duc du Lupin 1'13"1 Monté
30/05/20 4 Trot 14 000€ 2 875m Argentan Galinka du Lupin 1'17"7 Monté
31/05/20 D Trot 14 000€ 2 950m Saint Malo Girl Is Mine Monté
05/06/20 1 Trot 18 000€ 2 275m Nantes Eckmuhl Jack 1'14"2 Monté
06/06/20 D Trot 18 000€ 2 725m Lisieux Eloge de Lara Monté
07/06/20 0 Trot 13 000€ 2 775m Les Sables D'Olonne Eclair de Martigny Monté
08/06/20 D Trot 18 000€ 2 450m Caen Galicio Bello Monté
08/06/20 2 Trot 28 000€ 2 450m Caen Eroico Bello 1'13"5 Monté
08/06/20 D Trot 16 000€ 2 425m Angers Galinka du Lupin Monté
10/06/20 2 Trot 19 000€ 2 950m Vichy Fanfan du Lupin 1'16"8 Monté
19/06/20 7 Trot 15 000€ 2 225m Laval Harlem Girl 1'18"2 Monté
20/06/20 5 Trot 17 000€ 2 800m Chartres Faubourg 1'17"3 Monté
22/06/20 1 Trot 15 000€ 2 575m Saint Brieuc Gerfaut d'hameline 1'16"1 Monté
24/06/20 D Trot 32 000€ 2 875m Enghien Soisy Eroico Bello Monté
26/06/20 9 Trot 18 000€ 2 700m Le Mont Saint Michel Fripon du Mesle 1'22"1 Monté
28/06/20 5 Trot 18 000€ 3 200m Landivisiau Elvira des Keches Monté
01/07/20 1 Trot 16 000€ 2 725m Lisieux Fanfan du Lupin 1'15"6 Monté
02/07/20 D Trot 19 000€ 2 200m Vichy Huriel Speedhycat Monté
03/07/20 3 Trot 16 000€ 2 725m Pornichet La Baule Eckmuhl Jack 1'14"9 Monté
04/07/20 9 Trot 12 000€ 2 700m Segre Harlem Girl Monté
05/07/20 D Trot 15 000€ 2 850m Sable Sur Sarthe Exploit Gede Monté
06/07/20 3 Trot 22 000€ 2 800m Les Sables D'Olonne Daghad d'Erquy 1'14"5 Monté
09/07/20 3 Trot 15 000€ 2 950m Saint Malo Glycina Bella 1'17"3 Monté
10/07/20 1 Trot 24 000€ 2 725m Pornichet La Baule Elvira des Keches 1'14"3 Monté
14/07/20 D Trot 12 000€ 2 825m Durtal Galant de Syva Monté